Terminal Aerodrome Forecast
Issued by NWS

Home | Current Version | Previous Version | Text Only | Print | Product List | Glossary On
Versions: 1 2 3 4 5 6 7 8 9 10 11 12 13 14 15
333
FTUS44 KJAN 261720
TAFGTR
TAF
KGTR 261720Z 2618/2718 17015G21KT P6SM BKN030
     FM270200 16021G27KT P6SM OVC050
     FM270500 20022G30KT 4SM TSRA BR OVC025CB
     FM270700 30010KT P6SM -RA OVC007
     FM271400 30007KT P6SM OVC015=

USA.gov is the U.S. government's official web portal to all federal, state and local government web resources and services.